Time;durP1;ratioP1;P1;durP2;ratioP2;P2;SDS_P1;SDS_P2;PMS_P1;PMS_P2;Temp;Humidity;BMP_temperature;BMP_pressure;BME280_temperature;BME280_humidity;BME280_pressure;Samples;Min_cycle;Max_cycle;Signal;HPM_P1;HPM_P2
2023/08/24 00:01:08;;;;;;;17.73;8.80;;;;;;;14.62;100.00;101938.72;5076793;28;20398;-80
2023/08/24 00:03:34;;;;;;;12.02;7.97;;;;;;;14.66;100.00;101931.22;5094692;28;20032;-79
2023/08/24 00:05:59;;;;;;;14.27;7.78;;;;;;;14.69;100.00;101922.91;5094392;28;20443;-79
2023/08/24 00:08:24;;;;;;;13.38;7.90;;;;;;;14.74;100.00;101953.66;5094448;28;20064;-78
2023/08/24 00:10:50;;;;;;;13.65;7.10;;;;;;;14.76;100.00;101932.09;5094282;28;20469;-79
2023/08/24 00:13:15;;;;;;;13.40;7.15;;;;;;;14.78;100.00;101932.81;5094443;28;20142;-79
2023/08/24 00:15:41;;;;;;;12.82;7.20;;;;;;;14.83;100.00;101932.41;5094890;28;20110;-79
2023/08/24 00:18:07;;;;;;;11.85;7.78;;;;;;;14.83;100.00;101927.03;5094308;28;20032;-80
2023/08/24 00:20:33;;;;;;;11.65;7.32;;;;;;;14.84;100.00;101937.59;5094372;28;20042;-79
2023/08/24 00:22:59;;;;;;;10.45;6.85;;;;;;;14.83;100.00;101938.59;5094323;28;20044;-79
2023/08/24 00:25:25;;;;;;;9.40;6.20;;;;;;;14.82;100.00;101939.56;5094844;28;20035;-78
2023/08/24 00:27:52;;;;;;;16.35;7.07;;;;;;;14.82;100.00;101926.16;5094380;28;20383;-79
2023/08/24 00:30:18;;;;;;;10.98;6.88;;;;;;;14.81;100.00;101922.66;5094199;28;20475;-79
2023/08/24 00:32:43;;;;;;;8.32;6.55;;;;;;;14.81;100.00;101930.69;5094173;28;20067;-79
2023/08/24 00:35:10;;;;;;;16.15;7.85;;;;;;;14.83;100.00;101921.69;5094659;28;20031;-80
2023/08/24 00:37:35;;;;;;;11.05;6.63;;;;;;;14.85;100.00;101911.66;5094472;28;20467;-80
2023/08/24 00:40:04;;;;;;;11.27;6.82;;;;;;;14.88;100.00;101916.72;5094404;28;20062;-80
2023/08/24 00:42:29;;;;;;;12.43;7.25;;;;;;;14.88;100.00;101914.88;5094681;28;20402;-80
2023/08/24 00:44:55;;;;;;;10.27;6.68;;;;;;;14.92;100.00;101926.19;5094641;28;20034;-79
2023/08/24 00:47:21;;;;;;;9.23;6.53;;;;;;;14.94;100.00;101930.41;5094528;28;20031;-79
2023/08/24 00:49:46;;;;;;;8.73;6.65;;;;;;;14.97;100.00;101931.94;5094337;28;20530;-79
2023/08/24 00:52:12;;;;;;;12.60;6.35;;;;;;;14.98;100.00;101928.28;5094290;28;20035;-80
2023/08/24 00:54:39;;;;;;;12.32;6.38;;;;;;;15.00;100.00;101934.34;5094412;28;20040;-80
2023/08/24 00:57:05;;;;;;;11.40;6.30;;;;;;;15.03;100.00;101941.25;5094486;28;20545;-80
2023/08/24 00:59:32;;;;;;;10.52;6.88;;;;;;;15.05;100.00;101945.50;5075764;28;20126;-80
2023/08/24 01:01:59;;;;;;;9.18;6.18;;;;;;;15.08;100.00;101947.06;5093345;28;20472;-79
2023/08/24 01:04:24;;;;;;;13.70;6.78;;;;;;;15.12;100.00;101938.59;5075137;28;20065;-79
2023/08/24 01:06:51;;;;;;;10.88;5.82;;;;;;;15.15;100.00;101922.22;5093847;28;20025;-79
2023/08/24 01:09:16;;;;;;;13.50;6.60;;;;;;;15.22;100.00;101917.13;5094429;28;20389;-79
2023/08/24 01:11:53;;;;;;;11.65;6.93;;;;;;;15.24;100.00;101903.56;5075829;28;20036;-81
2023/08/24 01:15:04;;;;;;;11.90;6.07;;;;;;;15.18;100.00;101902.31;5094896;28;20101;-80
2023/08/24 01:17:31;;;;;;;11.35;6.50;;;;;;;15.09;100.00;101903.16;5094290;28;20024;-77
2023/08/24 01:19:58;;;;;;;12.50;6.75;;;;;;;15.04;100.00;101914.31;5093665;28;20384;-76
2023/08/24 01:22:26;;;;;;;13.88;7.13;;;;;;;14.98;100.00;101915.72;5093831;28;20066;-76
2023/08/24 01:25:07;;;;;;;11.98;6.93;;;;;;;14.94;100.00;101919.69;5093712;28;20032;-76
2023/08/24 01:27:34;;;;;;;13.27;7.60;;;;;;;14.93;100.00;101919.84;5093482;28;20039;-78
2023/08/24 01:30:03;;;;;;;13.75;7.93;;;;;;;14.94;100.00;101906.31;5093435;28;20130;-78
2023/08/24 01:32:31;;;;;;;11.85;7.95;;;;;;;14.94;100.00;101892.91;5093266;28;20496;-78
2023/08/24 01:34:57;;;;;;;15.43;8.95;;;;;;;14.94;100.00;101887.53;5093906;28;20024;-78
2023/08/24 01:37:22;;;;;;;14.80;8.52;;;;;;;14.98;100.00;101886.25;5093747;28;20055;-78
2023/08/24 01:40:00;;;;;;;13.30;8.40;;;;;;;14.96;100.00;101872.16;5093537;28;20158;-78
2023/08/24 01:42:29;;;;;;;13.73;8.25;;;;;;;14.95;100.00;101875.81;5093498;28;20099;-78
2023/08/24 01:44:59;;;;;;;16.92;8.48;;;;;;;14.91;100.00;101884.28;5092962;28;20112;-78
2023/08/24 01:47:25;;;;;;;16.85;8.30;;;;;;;14.86;100.00;101895.44;5093565;28;20107;-78
2023/08/24 01:49:51;;;;;;;14.70;7.97;;;;;;;14.81;100.00;101884.31;5093445;28;20123;-78
2023/08/24 01:52:17;;;;;;;11.82;6.63;;;;;;;14.78;100.00;101887.28;5092904;28;20495;-78
2023/08/24 01:54:43;;;;;;;17.58;7.47;;;;;;;14.74;100.00;101862.59;5093199;28;20373;-78
2023/08/24 01:57:08;;;;;;;10.95;7.38;;;;;;;14.76;100.00;101867.78;5092038;28;20028;-78
2023/08/24 01:59:34;;;;;;;14.25;7.88;;;;;;;14.74;100.00;101867.94;5091005;28;20028;-78
2023/08/24 02:01:59;;;;;;;12.57;6.55;;;;;;;14.74;100.00;101867.09;5075039;28;20028;-79
2023/08/24 02:04:24;;;;;;;14.23;7.28;;;;;;;14.76;100.00;101851.72;5092821;28;20039;-79
2023/08/24 02:06:50;;;;;;;8.98;6.75;;;;;;;14.76;100.00;101855.28;5093165;28;20432;-78
2023/08/24 02:09:15;;;;;;;13.45;7.65;;;;;;;14.75;100.00;101844.66;5092786;28;20028;-77
2023/08/24 02:11:40;;;;;;;10.52;6.18;;;;;;;14.76;100.00;101843.69;5092627;28;20032;-78
2023/08/24 02:14:06;;;;;;;12.00;6.10;;;;;;;14.74;100.00;101830.44;5074360;28;20093;-79
2023/08/24 02:16:31;;;;;;;20.58;7.47;;;;;;;14.76;100.00;101835.66;5092698;28;20043;-78
2023/08/24 02:18:57;;;;;;;10.32;7.22;;;;;;;14.73;100.00;101822.53;5092161;28;20031;-78
2023/08/24 02:21:22;;;;;;;14.40;7.07;;;;;;;14.72;100.00;101824.38;5092854;28;20491;-77
2023/08/24 02:23:47;;;;;;;12.93;7.57;;;;;;;14.72;100.00;101818.16;5092855;28;20417;-78
2023/08/24 02:26:13;;;;;;;12.88;8.05;;;;;;;14.70;100.00;101821.00;5092757;28;20036;-78
2023/08/24 02:28:38;;;;;;;12.65;7.57;;;;;;;14.68;100.00;101825.66;5093080;28;20468;-78
2023/08/24 02:31:05;;;;;;;14.80;8.40;;;;;;;14.69;100.00;101823.81;5093373;28;20032;-78
2023/08/24 02:33:31;;;;;;;12.90;8.10;;;;;;;14.68;100.00;101828.34;5093095;28;20064;-78
2023/08/24 02:35:57;;;;;;;14.38;8.35;;;;;;;14.69;100.00;101826.47;5075533;28;20043;-77
2023/08/24 02:38:23;;;;;;;16.38;9.05;;;;;;;14.67;100.00;101828.47;5092925;28;20040;-77
2023/08/24 02:40:48;;;;;;;16.52;7.60;;;;;;;14.63;100.00;101834.13;5092902;28;20052;-77
2023/08/24 02:43:14;;;;;;;15.45;8.32;;;;;;;14.63;100.00;101839.47;5075117;28;20479;-77
2023/08/24 02:45:39;;;;;;;12.55;7.55;;;;;;;14.63;100.00;101834.13;5092838;28;20033;-77
2023/08/24 02:48:05;;;;;;;17.52;8.45;;;;;;;14.64;100.00;101829.59;5074686;28;20036;-77
2023/08/24 02:50:30;;;;;;;12.05;7.10;;;;;;;14.62;100.00;101821.69;5074046;28;20032;-77
2023/08/24 02:52:57;;;;;;;10.40;7.53;;;;;;;14.61;100.00;101814.69;5073965;28;20115;-77
2023/08/24 02:55:24;;;;;;;14.95;8.07;;;;;;;14.60;100.00;101812.06;5092787;28;20066;-77
2023/08/24 02:57:49;;;;;;;12.68;8.25;;;;;;;14.58;100.00;101806.03;5091997;28;20032;-77
2023/08/24 03:00:14;;;;;;;12.90;8.05;;;;;;;14.53;100.00;101795.75;5092855;28;20039;-77
2023/08/24 03:02:40;;;;;;;14.20;7.68;;;;;;;14.50;100.00;101800.56;5092574;28;20036;-77
2023/08/24 03:05:06;;;;;;;16.15;8.80;;;;;;;14.44;100.00;101794.75;5092116;28;20028;-77
2023/08/24 03:07:32;;;;;;;15.80;8.43;;;;;;;14.40;100.00;101797.88;5092347;28;20032;-77
2023/08/24 03:09:57;;;;;;;13.02;8.60;;;;;;;14.35;100.00;101792.94;5093696;28;20269;-77
2023/08/24 03:12:22;;;;;;;17.20;9.90;;;;;;;14.32;100.00;101785.19;5096292;28;20092;-78
2023/08/24 03:14:51;;;;;;;16.27;8.60;;;;;;;14.29;100.00;101777.44;5078082;28;20028;-78
2023/08/24 03:17:17;;;;;;;17.15;9.82;;;;;;;14.26;100.00;101778.56;5077767;28;20123;-78
2023/08/24 03:19:42;;;;;;;14.18;9.43;;;;;;;14.24;100.00;101780.53;5095884;28;20044;-77
2023/08/24 03:22:07;;;;;;;13.88;9.05;;;;;;;14.22;100.00;101785.16;5096289;28;20027;-77
2023/08/24 03:24:33;;;;;;;15.30;8.65;;;;;;;14.18;100.00;101781.09;5095739;28;20075;-77
2023/08/24 03:26:58;;;;;;;17.77;9.60;;;;;;;14.15;100.00;101781.34;5095811;28;20058;-77
2023/08/24 03:29:23;;;;;;;17.40;9.75;;;;;;;14.14;100.00;101771.66;5078037;28;20036;-77
2023/08/24 03:31:49;;;;;;;18.00;9.63;;;;;;;14.11;100.00;101778.13;5095859;28;20039;-77
2023/08/24 03:34:14;;;;;;;13.60;9.52;;;;;;;14.08;100.00;101769.53;5077296;28;20492;-77
2023/08/24 03:36:39;;;;;;;17.38;10.90;;;;;;;14.05;100.00;101781.34;5077822;28;20032;-77
2023/08/24 03:39:05;;;;;;;17.05;10.30;;;;;;;14.04;100.00;101781.50;5095970;28;20035;-77
2023/08/24 03:41:30;;;;;;;18.58;10.75;;;;;;;14.01;100.00;101776.44;5095672;28;20052;-77
2023/08/24 03:43:55;;;;;;;15.18;10.00;;;;;;;13.97;100.00;101773.16;5096414;28;20032;-77
2023/08/24 03:46:21;;;;;;;16.90;10.27;;;;;;;13.97;100.00;101772.34;5095339;28;20028;-77
2023/08/24 03:48:46;;;;;;;21.23;10.80;;;;;;;13.97;100.00;101777.69;5095713;28;20055;-77
2023/08/24 03:51:12;;;;;;;16.95;11.70;;;;;;;13.97;100.00;101772.34;5095717;28;20064;-77
2023/08/24 03:53:38;;;;;;;19.33;11.77;;;;;;;13.97;100.00;101772.34;5095705;28;20036;-77
2023/08/24 03:56:03;;;;;;;17.83;11.15;;;;;;;13.99;100.00;101765.00;5096434;28;20040;-77
2023/08/24 03:58:29;;;;;;;19.05;12.10;;;;;;;14.04;100.00;101774.31;5095707;28;20181;-77
2023/08/24 04:00:55;;;;;;;20.63;12.00;;;;;;;14.08;100.00;101773.06;5095511;28;20119;-78
2023/08/24 04:03:20;;;;;;;20.73;12.18;;;;;;;14.12;100.00;101776.28;5096359;28;20431;-78
2023/08/24 04:05:46;;;;;;;19.63;11.55;;;;;;;14.18;100.00;101782.91;5096247;28;20473;-78
2023/08/24 04:08:11;;;;;;;21.02;12.48;;;;;;;14.18;100.00;101770.41;5096023;28;20382;-77
2023/08/24 04:10:37;;;;;;;21.73;11.77;;;;;;;14.22;100.00;101774.47;5095412;28;20032;-78
2023/08/24 04:13:03;;;;;;;20.17;12.57;;;;;;;14.23;100.00;101769.97;5095480;28;20032;-77
2023/08/24 04:15:28;;;;;;;23.45;12.27;;;;;;;14.23;100.00;101772.66;5095755;28;20040;-77
2023/08/24 04:17:53;;;;;;;23.02;12.88;;;;;;;14.21;100.00;101775.47;5077655;28;20035;-77
2023/08/24 04:20:19;;;;;;;22.55;12.82;;;;;;;14.22;100.00;101768.28;5094775;28;20035;-77
2023/08/24 04:22:44;;;;;;;22.88;12.38;;;;;;;14.21;100.00;101766.56;5095394;28;20092;-78
2023/08/24 04:25:09;;;;;;;19.85;10.88;;;;;;;14.20;100.00;101764.91;5095145;28;20053;-77
2023/08/24 04:27:36;;;;;;;18.67;11.05;;;;;;;14.15;100.00;101762.63;5095296;28;20043;-78
2023/08/24 04:30:03;;;;;;;23.38;11.98;;;;;;;14.12;100.00;101760.22;5095039;28;20042;-78
2023/08/24 04:32:28;;;;;;;21.23;12.95;;;;;;;14.10;100.00;101754.19;5095061;28;20086;-78
2023/08/24 04:34:53;;;;;;;17.30;11.13;;;;;;;14.08;100.00;101759.66;5095084;28;20040;-77
2023/08/24 04:37:20;;;;;;;19.75;11.27;;;;;;;14.06;100.00;101758.09;5094597;28;20433;-78
2023/08/24 04:39:46;;;;;;;22.98;12.65;;;;;;;14.06;100.00;101756.31;5094718;28;20158;-77
2023/08/24 04:42:11;;;;;;;21.75;13.13;;;;;;;14.07;100.00;101759.81;5094658;28;20419;-78
2023/08/24 04:44:37;;;;;;;24.08;13.13;;;;;;;14.05;100.00;101751.91;5094837;28;20039;-77
2023/08/24 04:47:02;;;;;;;21.98;12.52;;;;;;;14.06;100.00;101748.28;5095069;28;20043;-77
2023/08/24 04:49:29;;;;;;;25.50;12.90;;;;;;;14.06;100.00;101740.25;5094951;28;20051;-77
2023/08/24 04:51:55;;;;;;;20.85;12.40;;;;;;;14.07;100.00;101741.91;5094690;28;20101;-78
2023/08/24 04:54:21;;;;;;;24.95;12.55;;;;;;;14.07;100.00;101738.41;5094596;28;20480;-77
2023/08/24 04:56:46;;;;;;;24.23;14.38;;;;;;;14.07;100.00;101741.91;5094463;28;20157;-77
2023/08/24 04:59:12;;;;;;;23.88;12.52;;;;;;;14.08;100.00;101745.47;5094617;28;20111;-77
2023/08/24 05:01:37;;;;;;;31.20;13.48;;;;;;;14.10;100.00;101740.78;5094535;28;20110;-77
2023/08/24 05:04:03;;;;;;;23.73;12.88;;;;;;;14.14;100.00;101733.31;5094575;28;20043;-77
2023/08/24 05:06:28;;;;;;;21.63;13.00;;;;;;;14.17;100.00;101727.72;5093993;28;20031;-78
2023/08/24 05:08:54;;;;;;;23.65;13.15;;;;;;;14.17;100.00;101717.84;5094108;28;20460;-78
2023/08/24 05:11:22;;;;;;;23.40;13.00;;;;;;;14.17;100.00;101717.84;5094146;28;20031;-78
2023/08/24 05:13:47;;;;;;;23.13;12.70;;;;;;;14.19;100.00;101709.66;5094041;28;20395;-78
2023/08/24 05:16:13;;;;;;;24.90;13.68;;;;;;;14.20;100.00;101706.03;5094275;28;20036;-79
2023/08/24 05:18:39;;;;;;;23.25;12.95;;;;;;;14.19;100.00;101713.19;5093979;28;20517;-78
2023/08/24 05:21:05;;;;;;;23.98;13.35;;;;;;;14.21;100.00;101715.72;5094129;28;20032;-77
2023/08/24 05:23:34;;;;;;;21.83;13.13;;;;;;;14.25;100.00;101712.63;5092814;28;20063;-78
2023/08/24 05:26:00;;;;;;;29.05;14.45;;;;;;;14.32;100.00;101717.44;5094248;28;20028;-78
2023/08/24 05:28:27;;;;;;;23.38;13.85;;;;;;;14.38;100.00;101716.84;5093874;28;20024;-78
2023/08/24 05:30:53;;;;;;;24.95;13.23;;;;;;;14.45;100.00;101707.22;5094319;28;20119;-79
2023/08/24 05:33:20;;;;;;;26.58;14.38;;;;;;;14.51;100.00;101705.81;5093356;28;20036;-79
2023/08/24 05:35:46;;;;;;;29.80;14.07;;;;;;;14.56;100.00;101709.75;5075830;28;20460;-78
2023/08/24 05:38:12;;;;;;;27.25;14.00;;;;;;;14.58;100.00;101705.09;5075603;28;20114;-77
2023/08/24 05:40:39;;;;;;;22.17;13.13;;;;;;;14.61;100.00;101693.28;5093412;28;20056;-77
2023/08/24 05:43:04;;;;;;;24.10;13.52;;;;;;;14.66;100.00;101700.88;5094306;28;20040;-78
2023/08/24 05:45:29;;;;;;;25.05;12.68;;;;;;;14.68;100.00;101690.91;5093681;28;20501;-78
2023/08/24 05:47:55;;;;;;;21.48;12.75;;;;;;;14.71;100.00;101688.75;5075401;28;20114;-80
2023/08/24 05:50:20;;;;;;;19.83;12.45;;;;;;;14.74;100.00;101691.13;5075523;28;20117;-78
2023/08/24 05:52:46;;;;;;;21.52;13.10;;;;;;;14.79;100.00;101694.25;5093852;28;20325;-78
2023/08/24 05:55:11;;;;;;;21.65;12.60;;;;;;;14.86;100.00;101689.13;5093520;28;20032;-78
2023/08/24 05:57:36;;;;;;;22.42;12.85;;;;;;;14.91;100.00;101676.16;5093386;28;20030;-78
2023/08/24 06:00:03;;;;;;;19.60;12.35;;;;;;;14.97;100.00;101666.66;5093496;28;20505;-78
2023/08/24 06:02:29;;;;;;;21.25;12.70;;;;;;;15.02;100.00;101664.41;5092840;28;20028;-78
2023/08/24 06:04:54;;;;;;;23.77;12.65;;;;;;;15.07;100.00;101667.47;5093112;28;20582;-78
2023/08/24 06:07:21;;;;;;;19.38;12.73;;;;;;;15.13;100.00;101664.19;5093317;28;20131;-78
2023/08/24 06:09:46;;;;;;;21.27;12.38;;;;;;;15.19;100.00;101667.28;5075734;28;20040;-78
2023/08/24 06:12:12;;;;;;;21.90;13.07;;;;;;;15.26;100.00;101668.38;5093443;28;20419;-78
2023/08/24 06:14:37;;;;;;;18.80;12.60;;;;;;;15.34;100.00;101655.88;5075147;28;20024;-78
2023/08/24 06:17:03;;;;;;;22.05;12.63;;;;;;;15.42;100.00;101644.41;5093925;28;20111;-78
2023/08/24 06:19:28;;;;;;;24.95;13.23;;;;;;;15.53;100.00;101640.66;5093085;28;20040;-78
2023/08/24 06:21:54;;;;;;;22.40;13.07;;;;;;;15.60;100.00;101641.75;5093147;28;20123;-78
2023/08/24 06:24:19;;;;;;;22.42;13.05;;;;;;;15.69;100.00;101638.16;5093538;28;20028;-78
2023/08/24 06:26:45;;;;;;;26.45;12.75;;;;;;;15.77;100.00;101634.69;5092898;28;20468;-78
2023/08/24 06:29:10;;;;;;;22.73;13.00;;;;;;;15.85;100.00;101625.91;5093192;28;20047;-78
2023/08/24 06:31:35;;;;;;;19.80;12.73;;;;;;;15.91;100.00;101629.81;5094009;28;20028;-78
2023/08/24 06:34:01;;;;;;;20.77;12.15;;;;;;;15.98;100.00;101630.88;5092947;28;20059;-78
2023/08/24 06:36:26;;;;;;;20.33;11.80;;;;;;;16.05;100.00;101634.63;5093189;28;20028;-77
2023/08/24 06:38:51;;;;;;;21.63;13.15;;;;;;;16.14;100.00;101640.91;5074465;28;20034;-78
2023/08/24 06:41:19;;;;;;;19.15;12.35;;;;;;;16.23;100.00;101637.28;5093028;28;20055;-77
2023/08/24 06:43:44;;;;;;;24.52;12.85;;;;;;;16.32;100.00;101639.03;5093851;28;20032;-78
2023/08/24 06:46:10;;;;;;;21.50;12.15;;;;;;;16.40;100.00;101646.28;5097092;28;20038;-78
2023/08/24 06:48:37;;;;;;;16.90;11.82;;;;;;;16.51;100.00;101654.09;5096996;28;20111;-78
2023/08/24 06:51:02;;;;;;;19.15;12.05;;;;;;;16.65;100.00;101655.34;5097451;28;20464;-78
2023/08/24 06:53:28;;;;;;;19.50;12.13;;;;;;;16.80;100.00;101650.22;5096975;28;20038;-78
2023/08/24 06:55:57;;;;;;;21.23;12.18;;;;;;;16.90;100.00;101634.00;5096632;28;20120;-79
2023/08/24 06:58:22;;;;;;;23.80;12.40;;;;;;;17.03;100.00;101620.09;5096906;28;20032;-79
2023/08/24 07:00:50;;;;;;;20.55;11.57;;;;;;;17.13;100.00;101628.88;5078659;28;20085;-78
2023/08/24 07:03:16;;;;;;;18.80;11.40;;;;;;;17.22;100.00;101621.66;5096885;28;20033;-79
2023/08/24 07:05:42;;;;;;;19.27;12.48;;;;;;;17.34;100.00;101620.34;5078588;28;20392;-79
2023/08/24 07:08:07;;;;;;;15.27;10.85;;;;;;;17.48;100.00;101610.81;5096827;28;20028;-79
2023/08/24 07:10:32;;;;;;;16.75;11.57;;;;;;;17.63;100.00;101616.38;5096680;28;20040;-78
2023/08/24 07:12:58;;;;;;;22.33;12.38;;;;;;;17.82;100.00;101617.88;5096753;28;20032;-78
2023/08/24 07:15:23;;;;;;;29.88;12.27;;;;;;;18.10;100.00;101606.81;5096892;28;20117;-78
2023/08/24 07:17:49;;;;;;;18.33;11.52;;;;;;;18.34;100.00;101611.31;5096269;28;20074;-78
2023/08/24 07:20:14;;;;;;;20.77;12.25;;;;;;;18.62;100.00;101614.44;5096871;28;20039;-78
2023/08/24 07:22:40;;;;;;;19.38;11.55;;;;;;;18.99;100.00;101610.28;5096521;28;20036;-79
2023/08/24 07:25:06;;;;;;;15.65;10.25;;;;;;;19.27;100.00;101603.56;5096482;28;20440;-79
2023/08/24 07:27:35;;;;;;;16.95;11.23;;;;;;;19.58;100.00;101599.97;5096738;28;20032;-79
2023/08/24 07:30:05;;;;;;;19.52;10.98;;;;;;;19.76;100.00;101596.97;5096066;28;20078;-78
2023/08/24 07:32:31;;;;;;;17.27;11.07;;;;;;;19.87;100.00;101591.16;5097061;28;20111;-79
2023/08/24 07:34:58;;;;;;;18.15;12.23;;;;;;;19.91;100.00;101589.78;5096321;28;20112;-79
2023/08/24 07:37:23;;;;;;;22.13;11.20;;;;;;;19.93;100.00;101593.16;5097114;28;20059;-80
2023/08/24 07:39:49;;;;;;;18.15;11.63;;;;;;;20.02;100.00;101586.63;5078661;28;20032;-79
2023/08/24 07:42:14;;;;;;;16.23;11.65;;;;;;;20.10;100.00;101588.41;5096735;28;20388;-78
2023/08/24 07:44:40;;;;;;;18.23;11.38;;;;;;;20.23;100.00;101595.91;5096218;28;20111;-79
2023/08/24 07:47:05;;;;;;;22.50;10.98;;;;;;;20.35;100.00;101591.72;5077697;28;20464;-79
2023/08/24 07:49:31;;;;;;;17.65;11.57;;;;;;;20.54;100.00;101578.66;5096024;28;20040;-80
2023/08/24 07:51:58;;;;;;;15.82;10.93;;;;;;;20.71;100.00;101572.06;5095861;28;20455;-80
2023/08/24 07:54:23;;;;;;;21.52;11.23;;;;;;;20.83;100.00;101579.69;5095743;28;20531;-79
2023/08/24 07:56:49;;;;;;;19.58;11.93;;;;;;;20.87;100.00;101578.25;5095083;28;20024;-80
2023/08/24 07:59:14;;;;;;;20.50;11.00;;;;;;;20.93;100.00;101570.25;5096076;28;20058;-80
2023/08/24 08:01:39;;;;;;;17.80;11.75;;;;;;;20.96;100.00;101560.91;5095610;28;20461;-79
2023/08/24 08:04:05;;;;;;;17.70;11.55;;;;;;;21.01;100.00;101554.94;5095916;28;20036;-80
2023/08/24 08:06:31;;;;;;;20.50;11.48;;;;;;;20.96;100.00;101555.50;5096197;28;20035;-80
2023/08/24 08:08:57;;;;;;;20.95;10.95;;;;;;;21.01;100.00;101560.34;5095214;28;20039;-80
2023/08/24 08:11:23;;;;;;;17.25;11.13;;;;;;;21.02;100.00;101553.88;5077430;28;20036;-80
2023/08/24 08:13:48;;;;;;;18.88;11.50;;;;;;;20.99;100.00;101551.56;5095142;28;20074;-80
2023/08/24 08:16:14;;;;;;;23.95;11.30;;;;;;;20.94;100.00;101535.91;5095811;28;20460;-80
2023/08/24 08:18:39;;;;;;;18.52;11.13;;;;;;;20.90;100.00;101537.31;5077350;28;20119;-79
2023/08/24 08:21:17;;;;;;;14.85;10.30;;;;;;;20.93;100.00;101532.38;5095567;28;20035;-80
2023/08/24 08:23:43;;;;;;;19.98;10.20;;;;;;;21.04;100.00;101541.84;5095664;28;20578;-79
2023/08/24 08:26:10;;;;;;;17.50;10.48;;;;;;;21.12;100.00;101536.34;5095269;28;20029;-79
2023/08/24 08:28:35;;;;;;;13.77;10.07;;;;;;;21.24;100.00;101531.25;5095554;28;20028;-79
2023/08/24 08:31:02;;;;;;;17.50;11.05;;;;;;;21.34;100.00;101521.97;5095178;28;20119;-80
2023/08/24 08:33:27;;;;;;;16.10;11.13;;;;;;;21.41;100.00;101514.75;5095799;28;20436;-79
2023/08/24 08:35:52;;;;;;;18.05;10.32;;;;;;;21.33;100.00;101499.47;5076732;28;20036;-78
2023/08/24 08:38:18;;;;;;;15.80;10.00;;;;;;;21.33;100.00;101504.03;5076679;28;20060;-80
2023/08/24 08:40:45;;;;;;;19.63;10.48;;;;;;;21.18;100.00;101509.53;5094538;28;20056;-79
2023/08/24 08:43:10;;;;;;;14.85;10.57;;;;;;;21.17;100.00;101514.13;5077609;28;20044;-80
2023/08/24 08:45:36;;;;;;;18.13;10.23;;;;;;;21.23;100.00;101518.75;5095260;28;20040;-80
2023/08/24 08:48:02;;;;;;;15.80;10.13;;;;;;;21.33;100.00;101513.00;5076710;28;20055;-80
2023/08/24 08:50:31;;;;;;;17.38;10.90;;;;;;;21.39;100.00;101508.69;5094779;28;20480;-80
2023/08/24 08:52:58;;;;;;;18.30;10.57;;;;;;;21.44;100.00;101501.66;5095147;28;20241;-80
2023/08/24 08:55:25;;;;;;;19.75;10.73;;;;;;;21.55;100.00;101499.50;5076803;28;20036;-80
2023/08/24 08:57:53;;;;;;;18.35;10.32;;;;;;;21.67;100.00;101495.19;5094551;28;20028;-80
2023/08/24 09:00:20;;;;;;;17.85;10.00;;;;;;;21.75;100.00;101491.50;5094734;28;20444;-80
2023/08/24 09:02:47;;;;;;;12.52;9.75;;;;;;;21.83;100.00;101492.19;5094488;28;20028;-79
2023/08/24 09:05:14;;;;;;;20.58;10.32;;;;;;;21.82;100.00;101495.91;5094431;28;20089;-79
2023/08/24 09:07:40;;;;;;;15.13;9.90;;;;;;;21.86;100.00;101496.38;5092893;28;20110;-79
2023/08/24 09:10:07;;;;;;;16.40;10.35;;;;;;;21.85;100.00;101500.13;5094246;28;20067;-78
2023/08/24 09:12:33;;;;;;;16.45;10.45;;;;;;;21.83;100.00;101492.19;5094022;28;20533;-79
2023/08/24 09:14:58;;;;;;;15.75;10.35;;;;;;;21.82;100.00;101505.94;5094317;28;20032;-79
2023/08/24 09:17:24;;;;;;;14.57;10.18;;;;;;;21.83;100.00;101518.44;5093999;28;20173;-79
2023/08/24 09:19:51;;;;;;;20.45;11.80;;;;;;;21.81;100.00;101524.06;5093706;28;20109;-78
2023/08/24 09:22:17;;;;;;;17.42;10.35;;;;;;;21.80;100.00;101538.63;5075778;28;20032;-79
2023/08/24 09:24:43;;;;;;;17.90;10.63;;;;;;;21.63;100.00;101546.22;5076183;28;20040;-80
2023/08/24 09:27:16;;;;;;;16.25;10.25;;;;;;;21.53;100.00;101536.72;5093796;28;20459;-79
2023/08/24 09:29:42;;;;;;;15.60;10.32;;;;;;;21.46;100.00;101526.66;5094408;28;20039;-80
2023/08/24 09:32:10;;;;;;;15.00;9.80;;;;;;;21.35;100.00;101519.06;5075764;28;20456;-80
2023/08/24 09:34:36;;;;;;;14.40;10.93;;;;;;;21.29;100.00;101517.16;5094218;28;20051;-79
2023/08/24 09:37:04;;;;;;;15.13;11.27;;;;;;;21.22;100.00;101516.25;5075668;28;20111;-79
2023/08/24 09:39:29;;;;;;;19.25;10.88;;;;;;;21.14;100.00;101512.63;5093690;28;20039;-80
2023/08/24 09:42:00;;;;;;;18.83;10.90;;;;;;;21.05;100.00;101505.66;5093824;28;20052;-80
2023/08/24 09:44:27;;;;;;;20.30;10.80;;;;;;;21.01;100.00;101498.97;5093823;28;20038;-79
2023/08/24 09:46:52;;;;;;;23.70;11.50;;;;;;;20.94;100.00;101492.63;5093234;28;20074;-79
2023/08/24 09:49:19;;;;;;;16.67;11.07;;;;;;;20.93;100.00;101496.41;5093585;28;20064;-80
2023/08/24 09:51:44;;;;;;;21.70;11.32;;;;;;;20.95;100.00;101492.44;5093565;28;20110;-80
2023/08/24 09:54:11;;;;;;;17.55;11.00;;;;;;;21.02;100.00;101488.97;5075238;28;20452;-80
2023/08/24 09:56:39;;;;;;;15.20;10.40;;;;;;;21.05;100.00;101497.56;5075586;28;20466;-80
2023/08/24 09:59:14;;;;;;;18.73;11.02;;;;;;;21.02;100.00;101492.53;5093119;28;20092;-80
2023/08/24 10:01:44;;;;;;;15.23;10.30;;;;;;;21.00;100.00;101496.44;5093182;28;20063;-81
2023/08/24 10:04:11;;;;;;;17.25;11.05;;;;;;;20.94;100.00;101509.72;5093817;28;20416;-81
2023/08/24 10:06:39;;;;;;;19.83;11.73;;;;;;;20.93;100.00;101516.16;5093395;28;20086;-80
2023/08/24 10:09:08;;;;;;;20.85;12.40;;;;;;;20.91;100.00;101518.19;5093319;28;20077;-80
2023/08/24 10:11:39;;;;;;;17.33;11.20;;;;;;;20.92;100.00;101510.94;5093322;28;20024;-80
2023/08/24 10:14:12;;;;;;;;;;;;;;;20.92;100.00;101513.63;5093402;28;20024;-80
2023/08/24 10:16:40;;;;;;;23.67;11.45;;;;;;;20.95;100.00;101508.69;5093348;28;19907;-80
2023/08/24 10:19:06;;;;;;;14.55;10.52;;;;;;;21.01;100.00;101496.25;5074413;28;20023;-80
2023/08/24 10:21:33;;;;;;;20.55;11.80;;;;;;;21.09;100.00;101500.69;5075736;28;20063;-80
2023/08/24 10:24:01;;;;;;;16.45;11.07;;;;;;;21.16;100.00;101489.97;5093040;28;20464;-80
2023/08/24 10:26:26;;;;;;;20.23;12.10;;;;;;;21.26;100.00;101496.72;5093276;28;20460;-80
2023/08/24 10:28:52;;;;;;;16.80;11.43;;;;;;;21.44;100.00;101500.81;5092988;28;20044;-81
2023/08/24 10:31:19;;;;;;;21.88;12.32;;;;;;;21.58;100.00;101509.91;5093281;28;20032;-80
2023/08/24 10:33:46;;;;;;;19.77;11.55;;;;;;;21.59;100.00;101544.09;5091674;28;20031;-80
2023/08/24 10:36:13;;;;;;;19.25;12.07;;;;;;;21.43;100.00;101556.00;5074937;28;20078;-80
2023/08/24 10:38:42;;;;;;;16.88;10.30;;;;;;;21.20;100.00;101535.38;5093008;28;20033;-81
2023/08/24 10:41:09;;;;;;;18.80;10.57;;;;;;;21.09;100.00;101531.31;5093039;28;20043;-81
2023/08/24 10:43:37;;;;;;;15.68;10.38;;;;;;;21.07;100.00;101500.06;5093382;28;20024;-79
2023/08/24 10:46:03;;;;;;;20.58;9.90;;;;;;;21.21;100.00;101487.50;5092676;28;20024;-79
2023/08/24 10:48:41;;;;;;;16.75;9.13;;;;;;;21.42;100.00;101494.75;5092968;28;20086;-80
2023/08/24 10:51:48;;;;;;;16.83;9.27;;;;;;;21.66;100.00;101507.06;5092838;28;20464;-80
2023/08/24 10:54:07;;;;;;;21.77;9.27;;;;;;;21.94;100.00;101500.81;5088615;28;20035;-79
2023/08/24 10:56:36;;;;;;;15.93;8.95;;;;;;;22.14;100.00;101493.63;5092859;28;20037;-80
2023/08/24 10:59:14;;;;;;;15.75;9.38;;;;;;;22.20;100.00;101486.59;5093021;28;20024;-80
2023/08/24 11:01:42;;;;;;;19.02;9.48;;;;;;;22.24;100.00;101476.16;5074723;28;20466;-80